Terminal Aerodrome Forecast
Issued by NWS

Home | Current Version | Previous Version | Graphics & Text | Print | Product List | Glossary On
Versions: 1 2 3 4 5 6 7 8 9 10 11 12 13 14 15 16
000
FTUS43 KIWX 292300
TAFSBN
TAF
KSBN 292326Z 3000/3024 15008KT P6SM BKN060
     FM301400 21013G20KT P6SM BKN100
     FM301800 21016G22KT 6SM TSRA BKN035CB=

USA.gov is the U.S. government's official web portal to all federal, state and local government web resources and services.